Time;durP1;ratioP1;P1;durP2;ratioP2;P2;SDS_P1;SDS_P2;PMS_P1;PMS_P2;Temp;Humidity;BMP_temperature;BMP_pressure;BME280_temperature;BME280_humidity;BME280_pressure;Samples;Min_cycle;Max_cycle;Signal;HPM_P1;HPM_P2
2023/12/17 00:00:07;;;;;;;0.30;0.30;;;;;;;16.77;65.06;103708.06;5071497;28;20051;-69
2023/12/17 00:02:32;;;;;;;0.22;0.22;;;;;;;17.38;64.42;103701.81;5071210;28;20523;-69
2023/12/17 00:04:57;;;;;;;0.30;0.30;;;;;;;18.16;60.52;103706.75;5072127;28;20083;-68
2023/12/17 00:07:23;;;;;;;0.20;0.20;;;;;;;17.35;63.56;103709.53;5069995;28;20052;-69
2023/12/17 00:09:48;;;;;;;0.20;0.20;;;;;;;16.58;65.41;103696.00;5064697;28;20021;-69
2023/12/17 00:12:14;;;;;;;0.25;0.25;;;;;;;16.73;65.57;103695.91;5051826;28;20534;-68
2023/12/17 00:14:41;;;;;;;0.30;0.30;;;;;;;17.15;64.46;103695.81;5051425;28;20029;-68
2023/12/17 00:17:07;;;;;;;0.20;0.20;;;;;;;17.42;61.84;103697.66;5059239;28;20112;-68
2023/12/17 00:19:32;;;;;;;0.30;0.30;;;;;;;17.02;64.07;103692.19;5071206;28;20040;-69
2023/12/17 00:21:58;;;;;;;0.30;0.30;;;;;;;16.96;65.82;103695.69;5071550;28;20522;-68
2023/12/17 00:24:23;;;;;;;0.15;0.15;;;;;;;16.87;65.25;103694.97;5071609;28;20063;-69
2023/12/17 00:26:49;;;;;;;0.20;0.20;;;;;;;16.74;65.97;103689.47;5070888;28;20036;-68
2023/12/17 00:29:14;;;;;;;0.28;0.28;;;;;;;17.34;64.15;103695.09;5071268;28;20071;-68
2023/12/17 00:31:39;;;;;;;0.22;0.22;;;;;;;16.67;66.68;103696.69;5071303;28;20044;-68
2023/12/17 00:34:05;;;;;;;0.10;0.10;;;;;;;16.98;65.71;103690.91;5070888;28;20440;-68
2023/12/17 00:36:30;;;;;;;0.30;0.30;;;;;;;16.44;67.68;103686.03;5071872;28;20028;-68
2023/12/17 00:38:56;;;;;;;0.20;0.20;;;;;;;17.07;64.11;103668.81;5070870;28;20059;-69
2023/12/17 00:41:21;;;;;;;0.20;0.20;;;;;;;16.83;65.96;103671.13;5070707;28;20043;-68
2023/12/17 00:43:46;;;;;;;0.20;0.20;;;;;;;16.72;66.07;103674.38;5074733;28;20143;-68
2023/12/17 00:46:12;;;;;;;0.20;0.20;;;;;;;16.97;65.72;103673.75;5091578;28;20059;-68
2023/12/17 00:48:37;;;;;;;0.30;0.30;;;;;;;16.97;65.85;103671.03;5091466;28;20056;-67
2023/12/17 00:51:04;;;;;;;0.20;0.20;;;;;;;16.60;66.58;103676.81;5078616;28;20036;-67
2023/12/17 00:53:29;;;;;;;0.20;0.20;;;;;;;17.62;62.63;103680.63;5069491;28;20060;-68
2023/12/17 00:55:54;;;;;;;0.28;0.28;;;;;;;17.06;65.45;103680.69;5070473;28;20032;-69
2023/12/17 00:58:20;;;;;;;0.20;0.20;;;;;;;16.81;66.09;103689.50;5070669;28;20044;-69
2023/12/17 01:00:45;;;;;;;0.30;0.30;;;;;;;17.34;63.57;103680.66;5070158;28;20025;-68
2023/12/17 01:03:11;;;;;;;0.22;0.22;;;;;;;16.85;65.67;103675.31;5070635;28;20044;-69
2023/12/17 01:05:37;;;;;;;0.40;0.40;;;;;;;16.95;64.92;103677.69;5070067;28;20033;-69
2023/12/17 01:08:02;;;;;;;0.20;0.20;;;;;;;17.11;64.97;103669.22;5070310;28;20033;-69
2023/12/17 01:10:27;;;;;;;0.20;0.20;;;;;;;17.09;63.80;103650.41;5070351;28;20102;-69
2023/12/17 01:12:53;;;;;;;0.20;0.20;;;;;;;17.06;64.85;103656.22;5051452;28;20033;-68
2023/12/17 01:15:18;;;;;;;0.20;0.20;;;;;;;17.73;62.60;103667.25;5070819;28;20458;-69
2023/12/17 01:17:44;;;;;;;0.20;0.20;;;;;;;17.19;65.02;103680.78;5070242;28;20041;-68
2023/12/17 01:20:09;;;;;;;0.20;0.20;;;;;;;17.47;62.90;103670.69;5070022;28;20396;-68
2023/12/17 01:22:35;;;;;;;0.40;0.40;;;;;;;16.80;65.07;103677.81;5069803;28;20071;-69
2023/12/17 01:25:00;;;;;;;0.30;0.30;;;;;;;17.31;63.60;103678.34;5069902;28;20017;-68
2023/12/17 01:27:26;;;;;;;0.20;0.20;;;;;;;16.88;65.00;103677.66;5070252;28;20100;-70
2023/12/17 01:29:51;;;;;;;0.20;0.20;;;;;;;17.14;64.72;103675.09;5069743;28;20044;-69
2023/12/17 01:32:16;;;;;;;0.30;0.30;;;;;;;16.86;64.86;103692.47;5070056;28;20102;-69
2023/12/17 01:34:42;;;;;;;0.30;0.30;;;;;;;17.05;65.23;103670.03;5069703;28;20047;-68
2023/12/17 01:37:07;;;;;;;0.15;0.15;;;;;;;17.14;65.07;103666.94;5051647;28;20187;-68
2023/12/17 01:39:32;;;;;;;0.17;0.17;;;;;;;17.08;65.35;103672.38;5070360;28;20068;-69
2023/12/17 01:41:58;;;;;;;0.17;0.17;;;;;;;17.20;63.90;103676.19;5069405;28;20033;-69
2023/12/17 01:44:23;;;;;;;0.30;0.30;;;;;;;16.99;65.08;103676.25;5069478;28;20041;-67
2023/12/17 01:46:49;;;;;;;0.10;0.10;;;;;;;17.05;64.86;103678.19;5069530;28;20090;-68
2023/12/17 01:49:14;;;;;;;0.30;0.30;;;;;;;16.66;65.43;103684.16;5050968;28;20101;-68
2023/12/17 01:51:42;;;;;;;0.30;0.30;;;;;;;17.33;63.87;103681.72;5070016;28;20029;-69
2023/12/17 01:54:07;;;;;;;0.35;0.35;;;;;;;17.14;63.80;103685.16;5069542;28;20456;-69
2023/12/17 01:56:33;;;;;;;0.30;0.30;;;;;;;17.14;63.21;103679.72;5069348;28;20060;-68
2023/12/17 01:59:00;;;;;;;0.25;0.25;;;;;;;17.20;64.33;103679.75;5069309;28;20063;-68
2023/12/17 02:01:25;;;;;;;0.10;0.10;;;;;;;17.09;64.27;103671.31;5056393;28;20030;-68
2023/12/17 02:03:51;;;;;;;0.20;0.20;;;;;;;17.20;62.97;103676.19;5089182;28;20039;-67
2023/12/17 02:06:16;;;;;;;0.22;0.22;;;;;;;17.18;63.79;103680.97;5081215;28;20025;-69
2023/12/17 02:08:42;;;;;;;0.20;0.20;;;;;;;16.78;66.33;103681.75;5069345;28;20055;-69
2023/12/17 02:11:07;;;;;;;0.30;0.30;;;;;;;16.52;67.58;103679.66;5069358;28;20048;-68
2023/12/17 02:13:32;;;;;;;0.20;0.20;;;;;;;17.39;64.21;103683.63;5069255;28;20086;-68
2023/12/17 02:15:58;;;;;;;0.20;0.20;;;;;;;16.91;65.06;103674.53;5069187;28;20024;-68
2023/12/17 02:18:23;;;;;;;0.20;0.20;;;;;;;17.03;64.04;103678.38;5069961;28;20041;-68
2023/12/17 02:20:50;;;;;;;0.22;0.22;;;;;;;16.79;65.73;103686.13;5069129;28;20032;-69
2023/12/17 02:23:15;;;;;;;0.30;0.30;;;;;;;16.69;64.93;103678.31;5069289;28;20488;-68
2023/12/17 02:25:40;;;;;;;0.20;0.20;;;;;;;16.86;65.08;103678.88;5069404;28;20038;-67
2023/12/17 02:28:06;;;;;;;0.20;0.20;;;;;;;17.31;62.32;103676.47;5051160;28;20028;-68
2023/12/17 02:30:31;;;;;;;0.10;0.10;;;;;;;17.41;63.08;103674.19;5069549;28;20074;-68
2023/12/17 02:32:57;;;;;;;0.20;0.20;;;;;;;17.16;63.37;103666.78;5068863;28;20033;-68
2023/12/17 02:35:22;;;;;;;0.28;0.28;;;;;;;16.19;67.46;103667.63;5069350;28;20032;-69
2023/12/17 02:37:50;;;;;;;0.20;0.20;;;;;;;16.38;67.79;103666.97;5069270;28;20044;-68
2023/12/17 02:40:16;;;;;;;0.20;0.20;;;;;;;16.21;66.44;103658.25;5068687;28;20036;-69
2023/12/17 02:42:42;;;;;;;0.10;0.10;;;;;;;16.68;65.92;103663.94;5069306;28;20020;-69
2023/12/17 02:45:09;;;;;;;0.28;0.28;;;;;;;17.12;64.45;103663.59;5068804;28;20127;-68
2023/12/17 02:47:35;;;;;;;0.13;0.13;;;;;;;17.50;61.41;103662.16;5068990;28;20047;-67
2023/12/17 02:50:00;;;;;;;0.30;0.30;;;;;;;16.85;64.83;103664.47;5069353;28;20028;-68
2023/12/17 02:52:26;;;;;;;0.20;0.20;;;;;;;16.69;66.19;103664.75;5069101;28;20511;-68
2023/12/17 02:54:52;;;;;;;0.20;0.20;;;;;;;17.02;63.49;103663.09;5066344;28;20021;-68
2023/12/17 02:57:17;;;;;;;0.17;0.17;;;;;;;17.55;62.07;103661.56;5049438;28;20021;-69
2023/12/17 02:59:43;;;;;;;0.30;0.30;;;;;;;16.80;63.22;103672.38;5048883;28;20068;-69
2023/12/17 03:02:08;;;;;;;0.32;0.32;;;;;;;17.36;62.29;103670.41;5071730;28;20059;-68
2023/12/17 03:04:33;;;;;;;0.20;0.20;;;;;;;17.50;60.95;103664.03;5088730;28;20051;-69
2023/12/17 03:06:59;;;;;;;0.10;0.10;;;;;;;17.24;62.92;103656.56;5071295;28;20040;-69
2023/12/17 03:09:24;;;;;;;0.10;0.10;;;;;;;17.25;63.21;103660.13;5069209;28;20096;-68
2023/12/17 03:11:49;;;;;;;0.30;0.30;;;;;;;16.86;64.42;103658.00;5068432;28;20040;-68
2023/12/17 03:14:15;;;;;;;0.20;0.20;;;;;;;17.24;62.80;103655.72;5068652;28;20040;-68
2023/12/17 03:16:41;;;;;;;0.30;0.30;;;;;;;17.03;63.57;103650.38;5051808;28;20564;-68
2023/12/17 03:19:06;;;;;;;0.25;0.25;;;;;;;16.74;63.83;103654.16;5072615;28;20029;-68
2023/12/17 03:21:32;;;;;;;0.20;0.20;;;;;;;17.11;62.56;103651.06;5072833;28;20392;-68
2023/12/17 03:23:57;;;;;;;0.20;0.20;;;;;;;16.57;65.01;103645.44;5072568;28;20043;-69
2023/12/17 03:26:22;;;;;;;0.10;0.10;;;;;;;16.12;65.81;103645.84;5072520;28;20094;-69
2023/12/17 03:28:48;;;;;;;0.20;0.20;;;;;;;16.64;64.49;103646.34;5072507;28;20044;-68
2023/12/17 03:31:16;;;;;;;0.20;0.20;;;;;;;16.23;65.23;103642.63;5072510;28;20423;-68
2023/12/17 03:33:43;;;;;;;0.30;0.30;;;;;;;17.30;60.25;103617.69;5072762;28;20036;-69
2023/12/17 03:36:11;;;;;;;0.30;0.30;;;;;;;17.07;62.40;103628.03;5071786;28;20155;-69
2023/12/17 03:38:37;;;;;;;0.20;0.20;;;;;;;16.61;63.78;103630.44;5071901;28;20162;-69
2023/12/17 03:41:02;;;;;;;0.20;0.20;;;;;;;17.73;60.69;103636.53;5072070;28;20033;-68
2023/12/17 03:43:27;;;;;;;0.20;0.20;;;;;;;16.92;61.92;103618.34;5053914;28;20516;-68
2023/12/17 03:45:53;;;;;;;0.20;0.20;;;;;;;17.09;61.91;103631.41;5072693;28;20431;-69
2023/12/17 03:48:18;;;;;;;0.20;0.20;;;;;;;16.89;62.65;103627.72;5072101;28;20037;-69
2023/12/17 03:50:44;;;;;;;0.20;0.20;;;;;;;17.25;62.18;103624.78;5071889;28;20370;-68
2023/12/17 03:53:10;;;;;;;0.20;0.20;;;;;;;17.17;61.96;103633.09;5052320;28;20102;-67
2023/12/17 03:55:38;;;;;;;0.20;0.20;;;;;;;16.26;64.96;103635.94;5052053;28;20437;-68
2023/12/17 03:58:04;;;;;;;0.20;0.20;;;;;;;17.42;60.59;103626.13;5051669;28;20033;-68
2023/12/17 04:00:30;;;;;;;0.22;0.22;;;;;;;17.26;60.79;103618.28;5034299;28;20515;-68
2023/12/17 04:02:55;;;;;;;0.20;0.20;;;;;;;16.99;62.01;103622.78;5058041;28;20049;-69
2023/12/17 04:05:21;;;;;;;0.22;0.22;;;;;;;17.05;60.80;103629.28;5052393;28;20033;-69
2023/12/17 04:07:46;;;;;;;0.17;0.17;;;;;;;16.29;63.70;103612.00;5071527;28;20032;-67
2023/12/17 04:10:12;;;;;;;0.20;0.20;;;;;;;16.18;64.62;103607.06;5071580;28;20074;-68
2023/12/17 04:12:37;;;;;;;0.20;0.20;;;;;;;16.45;62.55;103614.41;5071964;28;20052;-68
2023/12/17 04:15:03;;;;;;;0.25;0.25;;;;;;;16.38;64.10;103613.53;5071502;28;20102;-68
2023/12/17 04:17:29;;;;;;;0.20;0.20;;;;;;;16.45;63.21;103614.41;5071568;28;20040;-69
2023/12/17 04:19:54;;;;;;;0.30;0.30;;;;;;;16.97;61.82;103616.69;5070034;28;20063;-68
2023/12/17 04:22:20;;;;;;;0.15;0.15;;;;;;;17.23;60.88;103621.44;5051425;28;20048;-70
2023/12/17 04:24:45;;;;;;;0.30;0.30;;;;;;;16.81;61.40;103617.00;5051560;28;20021;-68
2023/12/17 04:27:10;;;;;;;0.30;0.30;;;;;;;15.93;64.65;103610.38;5051035;28;20033;-68
2023/12/17 04:29:36;;;;;;;0.30;0.30;;;;;;;16.54;62.83;103610.56;5051316;28;20044;-68
2023/12/17 04:32:02;;;;;;;0.30;0.30;;;;;;;16.86;61.37;103608.28;5051296;28;20024;-67
2023/12/17 04:34:27;;;;;;;0.20;0.20;;;;;;;16.17;63.53;103604.56;5051359;28;20037;-68
2023/12/17 04:36:53;;;;;;;0.20;0.20;;;;;;;15.65;64.76;103607.56;5051864;28;20037;-68
2023/12/17 04:39:20;;;;;;;0.20;0.20;;;;;;;16.11;63.50;103608.91;5051301;28;20037;-68
2023/12/17 04:41:45;;;;;;;0.20;0.20;;;;;;;15.52;65.28;103602.84;5032503;28;20408;-68
2023/12/17 04:44:10;;;;;;;0.20;0.20;;;;;;;16.01;64.27;103599.41;5044034;28;20029;-68
2023/12/17 04:46:37;;;;;;;0.38;0.38;;;;;;;16.39;62.19;103598.91;5030918;28;20025;-68
2023/12/17 04:49:03;;;;;;;0.20;0.20;;;;;;;16.33;62.39;103604.28;5047038;28;20424;-67
2023/12/17 04:51:28;;;;;;;0.30;0.30;;;;;;;16.00;64.05;103598.53;5051191;28;20013;-68
2023/12/17 04:53:54;;;;;;;0.13;0.13;;;;;;;16.45;62.12;103608.97;5051033;28;20059;-68
2023/12/17 04:56:21;;;;;;;0.17;0.17;;;;;;;15.92;63.95;103611.41;5050323;28;20048;-68
2023/12/17 04:58:46;;;;;;;0.20;0.20;;;;;;;17.20;59.05;103610.94;5050669;28;20044;-69
2023/12/17 05:01:11;;;;;;;0.20;0.20;;;;;;;16.90;60.10;103604.97;5048196;28;20116;-69
2023/12/17 05:03:38;;;;;;;0.20;0.20;;;;;;;17.00;59.65;103601.88;5025642;28;20096;-69
2023/12/17 05:06:04;;;;;;;0.20;0.20;;;;;;;16.75;60.88;103606.09;5042420;28;20442;-67
2023/12/17 05:08:29;;;;;;;0.20;0.20;;;;;;;16.77;60.51;103607.56;5049881;28;20037;-68
2023/12/17 05:10:55;;;;;;;0.20;0.20;;;;;;;16.85;60.21;103607.41;5050307;28;20121;-68
2023/12/17 05:13:20;;;;;;;0.10;0.10;;;;;;;16.94;59.00;103608.97;5049497;28;20049;-68
2023/12/17 05:15:46;;;;;;;0.20;0.20;;;;;;;16.77;60.61;103610.28;5050367;28;20037;-68
2023/12/17 05:18:11;;;;;;;0.30;0.30;;;;;;;16.70;61.48;103593.13;5049204;28;20033;-68
2023/12/17 05:20:37;;;;;;;0.20;0.20;;;;;;;17.22;59.31;103598.00;5050163;28;20056;-67
2023/12/17 05:23:02;;;;;;;0.10;0.10;;;;;;;16.98;59.70;103598.53;5050406;28;20029;-69
2023/12/17 05:25:27;;;;;;;0.20;0.20;;;;;;;16.51;61.92;103605.50;5050353;28;20094;-68
2023/12/17 05:27:53;;;;;;;0.22;0.22;;;;;;;16.21;62.90;103595.00;5050298;28;20230;-69
2023/12/17 05:30:19;;;;;;;0.20;0.20;;;;;;;16.39;62.19;103593.47;5050230;28;20029;-68
2023/12/17 05:32:44;;;;;;;0.10;0.10;;;;;;;16.14;62.63;103594.94;5034531;28;20072;-69
2023/12/17 05:35:10;;;;;;;0.30;0.30;;;;;;;15.66;64.03;103603.84;5030062;28;20050;-69
2023/12/17 05:37:35;;;;;;;0.20;0.20;;;;;;;16.29;62.77;103592.16;5030305;28;20124;-69
2023/12/17 05:40:01;;;;;;;0.35;0.35;;;;;;;15.77;64.32;103598.75;5029518;28;20029;-67
2023/12/17 05:42:27;;;;;;;0.30;0.30;;;;;;;15.66;64.85;103590.28;5030059;28;20025;-68
2023/12/17 05:44:52;;;;;;;0.20;0.20;;;;;;;16.60;61.32;103593.47;5042427;28;20044;-68
2023/12/17 05:47:18;;;;;;;0.20;0.20;;;;;;;16.84;61.11;103599.47;5049717;28;20120;-68
2023/12/17 05:49:43;;;;;;;0.30;0.30;;;;;;;16.46;62.18;103598.97;5049839;28;20033;-68
2023/12/17 05:52:08;;;;;;;0.30;0.30;;;;;;;17.34;59.55;103599.94;5049559;28;20489;-68
2023/12/17 05:54:34;;;;;;;0.20;0.20;;;;;;;16.59;61.09;103602.66;5049952;28;20070;-68
2023/12/17 05:57:00;;;;;;;0.10;0.10;;;;;;;16.24;62.51;103603.59;5050014;28;20048;-68
2023/12/17 05:59:25;;;;;;;0.10;0.10;;;;;;;16.21;63.14;103617.56;5049503;28;20036;-69
2023/12/17 06:01:51;;;;;;;0.25;0.25;;;;;;;15.61;65.56;103600.84;5048965;28;20028;-68
2023/12/17 06:04:16;;;;;;;0.30;0.30;;;;;;;16.27;63.13;103608.63;5049774;28;20033;-68
2023/12/17 06:06:41;;;;;;;0.32;0.32;;;;;;;16.22;62.78;103612.94;5049913;28;20029;-68
2023/12/17 06:09:07;;;;;;;0.20;0.20;;;;;;;16.27;62.34;103618.66;5049344;28;20164;-68
2023/12/17 06:11:32;;;;;;;0.20;0.20;;;;;;;16.73;61.06;103609.00;5049523;28;20041;-67
2023/12/17 06:13:58;;;;;;;0.30;0.30;;;;;;;16.77;61.01;103606.72;5048999;28;20040;-69
2023/12/17 06:16:23;;;;;;;0.20;0.20;;;;;;;16.63;61.54;103601.22;5049150;28;20608;-69
2023/12/17 06:18:50;;;;;;;0.25;0.25;;;;;;;16.01;64.22;103599.41;5049703;28;20431;-68
2023/12/17 06:21:26;;;;;;;0.20;0.20;;;;;;;16.47;62.55;103596.03;5049558;28;20048;-67
2023/12/17 06:23:57;;;;;;;0.20;0.20;;;;;;;16.43;62.82;103594.75;5049178;28;20036;-69
2023/12/17 06:26:25;;;;;;;0.20;0.20;;;;;;;16.95;61.13;103602.47;5049433;28;20037;-68
2023/12/17 06:28:51;;;;;;;0.20;0.20;;;;;;;16.73;61.51;103602.75;5034504;28;20041;-69
2023/12/17 06:31:17;;;;;;;0.30;0.30;;;;;;;16.68;61.67;103606.91;5029311;28;20029;-68
2023/12/17 06:33:42;;;;;;;0.30;0.30;;;;;;;16.73;61.15;103605.47;5029841;28;20381;-69
2023/12/17 06:36:08;;;;;;;0.30;0.30;;;;;;;16.27;63.00;103600.50;5029174;28;20107;-69
2023/12/17 06:38:33;;;;;;;0.20;0.20;;;;;;;16.48;62.37;103605.03;5029351;28;20086;-68
2023/12/17 06:40:59;;;;;;;0.22;0.22;;;;;;;16.55;61.97;103598.66;5040655;28;20044;-69
2023/12/17 06:43:24;;;;;;;0.20;0.20;;;;;;;16.11;62.88;103597.19;5048780;28;20489;-69
2023/12/17 06:45:50;;;;;;;0.32;0.32;;;;;;;16.90;60.63;103604.13;5049744;28;20025;-68
2023/12/17 06:48:15;;;;;;;0.10;0.10;;;;;;;17.12;60.18;103611.16;5031191;28;20443;-68
2023/12/17 06:50:41;;;;;;;0.20;0.20;;;;;;;16.73;61.50;103613.63;5050659;28;20052;-67
2023/12/17 06:53:06;;;;;;;0.28;0.28;;;;;;;16.44;61.76;103604.59;5052664;28;20029;-67
2023/12/17 06:55:31;;;;;;;0.22;0.22;;;;;;;16.69;61.91;103608.56;5053037;28;20086;-69
2023/12/17 06:57:57;;;;;;;0.30;0.30;;;;;;;16.49;61.80;103618.44;5053285;28;20039;-69
2023/12/17 07:00:22;;;;;;;0.20;0.20;;;;;;;15.80;63.78;103619.22;5052687;28;20132;-68
2023/12/17 07:02:47;;;;;;;0.20;0.20;;;;;;;15.93;64.29;103607.66;5062141;28;20060;-69
2023/12/17 07:05:13;;;;;;;0.20;0.20;;;;;;;16.10;63.34;103609.91;5063317;28;20040;-68
2023/12/17 07:07:39;;;;;;;0.35;0.35;;;;;;;16.03;62.33;103611.75;5052575;28;20040;-68
2023/12/17 07:10:06;;;;;;;0.30;0.30;;;;;;;15.73;64.45;103616.44;5053145;28;20021;-67
2023/12/17 07:12:31;;;;;;;0.10;0.10;;;;;;;15.96;63.56;103610.81;5053305;28;20072;-68
2023/12/17 07:14:57;;;;;;;0.30;0.30;;;;;;;15.58;64.89;103614.78;5052556;28;20037;-69
2023/12/17 07:17:22;;;;;;;0.20;0.20;;;;;;;15.90;63.26;103613.47;5072813;28;20476;-68
2023/12/17 07:19:48;;;;;;;0.13;0.13;;;;;;;16.29;63.11;103614.72;5072713;28;20082;-68
2023/12/17 07:22:13;;;;;;;0.30;0.30;;;;;;;15.60;64.24;103608.16;5072496;28;20039;-69
2023/12/17 07:24:38;;;;;;;0.20;0.20;;;;;;;15.80;63.47;103611.91;5072624;28;20050;-68
2023/12/17 07:27:04;;;;;;;0.20;0.20;;;;;;;15.77;63.97;103614.16;5072417;28;20500;-69
2023/12/17 07:29:29;;;;;;;0.35;0.35;;;;;;;16.41;62.46;103618.53;5072178;28;20485;-68
2023/12/17 07:31:54;;;;;;;0.30;0.30;;;;;;;15.69;63.71;103622.41;5072080;28;20504;-70
2023/12/17 07:34:20;;;;;;;0.20;0.20;;;;;;;16.17;63.48;103618.13;5071971;28;20037;-68
2023/12/17 07:36:45;;;;;;;0.40;0.40;;;;;;;16.19;62.91;103597.06;5065432;28;20083;-69
2023/12/17 07:39:10;;;;;;;0.10;0.10;;;;;;;15.57;64.83;103611.22;5064489;28;20052;-69
2023/12/17 07:41:36;;;;;;;0.25;0.25;;;;;;;16.34;62.14;103608.66;5071860;28;20545;-68
2023/12/17 07:44:01;;;;;;;0.35;0.35;;;;;;;15.59;63.99;103625.44;5071454;28;20123;-69
2023/12/17 07:46:26;;;;;;;0.50;0.50;;;;;;;15.78;64.54;103613.16;5071673;28;20067;-68
2023/12/17 07:48:52;;;;;;;0.20;0.20;;;;;;;16.07;63.57;103612.19;5072214;28;20036;-69
2023/12/17 07:51:18;;;;;;;0.20;0.20;;;;;;;15.92;64.13;103604.09;5071871;28;20231;-70
2023/12/17 07:53:43;;;;;;;0.17;0.17;;;;;;;15.87;64.14;103598.44;5071586;28;20071;-69
2023/12/17 07:56:09;;;;;;;0.40;0.40;;;;;;;15.82;63.27;103603.59;5071498;28;20511;-68
2023/12/17 07:58:34;;;;;;;0.28;0.28;;;;;;;15.90;65.17;103606.16;5071493;28;20036;-69
2023/12/17 08:01:00;;;;;;;0.28;0.28;;;;;;;15.89;64.18;103611.78;5070827;28;20024;-68
2023/12/17 08:03:25;;;;;;;0.30;0.30;;;;;;;15.65;65.66;103594.84;5067924;28;20080;-70
2023/12/17 08:05:52;;;;;;;0.10;0.10;;;;;;;16.09;64.21;103608.25;5070738;28;20230;-70
2023/12/17 08:08:18;;;;;;;0.20;0.20;;;;;;;16.27;63.87;103599.66;5080133;28;20040;-69
2023/12/17 08:10:44;;;;;;;0.30;0.30;;;;;;;16.31;63.68;103606.38;5091722;28;20047;-70
2023/12/17 08:13:10;;;;;;;0.30;0.30;;;;;;;15.88;65.90;103591.97;5091823;28;20028;-67
2023/12/17 08:15:35;;;;;;;0.20;0.20;;;;;;;15.69;66.95;103608.88;5086425;28;20024;-68
2023/12/17 08:18:01;;;;;;;0.13;0.13;;;;;;;16.41;63.59;103599.53;5062341;28;20045;-69
2023/12/17 08:20:26;;;;;;;0.30;0.30;;;;;;;16.73;62.45;103597.34;5062222;28;20049;-69
2023/12/17 08:22:51;;;;;;;0.40;0.40;;;;;;;16.44;63.37;103592.91;5071495;28;20043;-69
2023/12/17 08:25:17;;;;;;;0.20;0.20;;;;;;;16.32;64.52;103589.03;5052749;28;20186;-69
2023/12/17 08:27:42;;;;;;;0.20;0.20;;;;;;;16.28;64.95;103585.88;5071877;28;20029;-69
2023/12/17 08:30:10;;;;;;;0.20;0.20;;;;;;;16.54;63.13;103586.13;5071263;28;20045;-70
2023/12/17 08:32:35;;;;;;;0.40;0.40;;;;;;;16.72;63.55;103585.63;5062096;28;20039;-69
2023/12/17 08:35:01;;;;;;;0.30;0.30;;;;;;;16.59;63.20;103599.09;5057553;28;20036;-68
2023/12/17 08:37:26;;;;;;;0.30;0.30;;;;;;;16.73;62.79;103592.72;5070917;28;20047;-69
2023/12/17 08:39:58;;;;;;;0.20;0.20;;;;;;;16.37;64.57;103587.41;5064517;28;20036;-69
2023/12/17 08:42:23;;;;;;;0.20;0.20;;;;;;;16.49;64.17;103579.63;5061482;28;20550;-68
2023/12/17 08:44:49;;;;;;;0.30;0.30;;;;;;;15.83;66.72;103591.72;5063284;28;20040;-69
2023/12/17 08:47:15;;;;;;;0.20;0.20;;;;;;;16.32;64.36;103589.03;5067476;28;20041;-69
2023/12/17 08:49:40;;;;;;;0.30;0.30;;;;;;;16.13;65.26;103582.41;5063340;28;20113;-69
2023/12/17 08:52:06;;;;;;;0.20;0.20;;;;;;;16.22;65.02;103589.38;5071478;28;20036;-66
2023/12/17 08:54:31;;;;;;;0.20;0.20;;;;;;;16.14;65.18;103591.38;5060785;28;20028;-68
2023/12/17 08:56:56;;;;;;;0.40;0.40;;;;;;;16.86;62.29;103591.97;5051440;28;20044;-69
2023/12/17 08:59:22;;;;;;;0.10;0.10;;;;;;;16.29;63.56;103592.16;5066766;28;20397;-70
2023/12/17 09:01:48;;;;;;;0.30;0.30;;;;;;;15.25;67.43;103600.78;5069764;28;20543;-68
2023/12/17 09:04:13;;;;;;;0.25;0.25;;;;;;;16.08;63.92;103584.03;5070997;28;20043;-68
2023/12/17 09:06:44;;;;;;;0.20;0.20;;;;;;;15.95;65.27;103597.47;5052328;28;20044;-70
2023/12/17 09:09:09;;;;;;;;;;;;;;;16.18;64.10;103600.81;5071380;28;20420;-68
2023/12/17 09:11:35;;;;;;;0.50;0.50;;;;;;;15.70;65.83;103595.09;5070326;28;19912;-68
2023/12/17 09:14:00;;;;;;;0.20;0.20;;;;;;;15.81;65.21;103588.34;5069555;28;20551;-69
2023/12/17 09:16:25;;;;;;;0.30;0.30;;;;;;;15.76;65.50;103598.94;5070718;28;20044;-67
2023/12/17 09:18:51;;;;;;;0.30;0.30;;;;;;;16.13;64.32;103593.28;5071367;28;20104;-68
2023/12/17 09:21:16;;;;;;;0.20;0.20;;;;;;;16.48;63.07;103596.88;5071014;28;20040;-68
2023/12/17 09:23:41;;;;;;;0.20;0.20;;;;;;;15.86;64.95;103593.22;5070511;28;20456;-69
2023/12/17 09:26:07;;;;;;;0.38;0.38;;;;;;;16.50;63.22;103590.28;5070588;28;20064;-68
2023/12/17 09:28:32;;;;;;;0.30;0.30;;;;;;;15.39;66.80;103599.94;5057930;28;20040;-69
2023/12/17 09:30:57;;;;;;;0.20;0.20;;;;;;;15.73;65.39;103596.59;5063878;28;20104;-69
2023/12/17 09:33:23;;;;;;;0.22;0.22;;;;;;;16.51;63.11;103591.94;5070260;28;20416;-70
2023/12/17 09:35:49;;;;;;;0.30;0.30;;;;;;;16.47;62.75;103587.91;5069629;28;20131;-69
2023/12/17 09:38:16;;;;;;;0.32;0.32;;;;;;;16.59;62.54;103590.94;5052111;28;20040;-68
2023/12/17 09:40:43;;;;;;;0.40;0.40;;;;;;;15.80;64.88;103597.53;5066026;28;20036;-68
2023/12/17 09:43:10;;;;;;;0.43;0.43;;;;;;;15.55;66.33;103596.19;5070843;28;20051;-68
2023/12/17 09:45:37;;;;;;;0.30;0.30;;;;;;;15.39;67.64;103589.09;5070800;28;20078;-69
2023/12/17 09:48:03;;;;;;;0.20;0.20;;;;;;;15.68;66.04;103596.34;5051875;28;20044;-68
2023/12/17 09:50:28;;;;;;;0.30;0.30;;;;;;;16.58;62.45;103600.13;5070302;28;20380;-67
2023/12/17 09:52:54;;;;;;;0.30;0.30;;;;;;;16.19;63.71;103599.78;5070397;28;20123;-68
2023/12/17 09:55:20;;;;;;;0.30;0.30;;;;;;;16.13;64.28;103601.41;5070296;28;20049;-69
2023/12/17 09:57:46;;;;;;;0.17;0.17;;;;;;;15.55;65.89;103604.31;5070600;28;20143;-69
2023/12/17 10:00:12;;;;;;;0.20;0.20;;;;;;;16.32;63.77;103586.31;5070310;28;20147;-69
2023/12/17 10:02:38;;;;;;;0.30;0.30;;;;;;;15.76;64.73;103599.75;5069918;28;20049;-68
2023/12/17 10:05:06;;;;;;;0.20;0.20;;;;;;;15.15;66.85;103588.59;5069823;28;20048;-68
2023/12/17 10:07:31;;;;;;;0.30;0.30;;;;;;;15.26;66.94;103591.66;5070264;28;20029;-68
2023/12/17 10:09:57;;;;;;;0.25;0.25;;;;;;;15.28;66.30;103581.47;5070520;28;20032;-68
2023/12/17 10:12:23;;;;;;;0.30;0.30;;;;;;;15.12;67.96;103587.06;5069948;28;20040;-68
2023/12/17 10:14:51;;;;;;;0.40;0.40;;;;;;;16.01;64.01;103585.84;5069731;28;20044;-68
2023/12/17 10:17:17;;;;;;;0.40;0.40;;;;;;;15.56;65.33;103585.19;5069917;28;20050;-69
2023/12/17 10:19:48;;;;;;;0.35;0.35;;;;;;;15.26;66.10;103588.09;5069616;28;20036;-69
2023/12/17 10:22:13;;;;;;;0.38;0.38;;;;;;;15.31;67.02;103589.19;5069666;28;20144;-69
2023/12/17 10:24:40;;;;;;;0.28;0.28;;;;;;;15.91;64.75;103575.31;5069833;28;20017;-69
2023/12/17 10:27:19;;;;;;;0.30;0.30;;;;;;;15.18;66.91;103580.91;5069630;28;20044;-69
2023/12/17 10:29:51;;;;;;;0.20;0.20;;;;;;;15.31;66.08;103574.84;5069510;28;20040;-68
2023/12/17 10:32:22;;;;;;;0.17;0.17;;;;;;;15.21;66.37;103585.13;5069649;28;20029;-68
2023/12/17 10:34:50;;;;;;;0.30;0.30;;;;;;;14.85;66.64;103564.22;5051549;28;20044;-67
2023/12/17 10:37:18;;;;;;;0.30;0.30;;;;;;;15.59;65.09;103571.22;5069650;28;20476;-68
2023/12/17 10:39:45;;;;;;;0.30;0.30;;;;;;;15.85;63.46;103565.25;5070608;28;20074;-67
2023/12/17 10:42:12;;;;;;;0.30;0.30;;;;;;;15.60;64.15;103558.53;5070007;28;20032;-68
2023/12/17 10:44:38;;;;;;;0.40;0.40;;;;;;;16.03;62.57;103552.06;5069484;28;20503;-68
2023/12/17 10:47:05;;;;;;;0.30;0.30;;;;;;;15.49;65.14;103548.16;5069451;28;20032;-69
2023/12/17 10:49:31;;;;;;;0.20;0.20;;;;;;;15.45;65.26;103555.03;5069300;28;20036;-68
2023/12/17 10:51:57;;;;;;;0.20;0.20;;;;;;;15.30;64.94;103554.16;5069835;28;20388;-68
2023/12/17 10:54:23;;;;;;;0.30;0.30;;;;;;;17.24;58.87;103552.44;5069391;28;20762;-69
2023/12/17 10:56:59;;;;;;;0.20;0.20;;;;;;;16.91;61.20;103549.59;5069182;28;20066;-68
2023/12/17 10:59:32;;;;;;;0.32;0.32;;;;;;;16.61;60.68;103553.56;5069088;28;20041;-69
2023/12/17 11:02:01;;;;;;;0.35;0.35;;;;;;;16.93;59.53;103546.66;5069105;28;20036;-68
2023/12/17 11:04:27;;;;;;;0.30;0.30;;;;;;;15.87;63.39;103546.91;5069106;28;20143;-70
2023/12/17 11:06:53;;;;;;;0.20;0.20;;;;;;;15.89;63.58;103547.56;5069628;28;20051;-68
2023/12/17 11:09:19;;;;;;;0.35;0.35;;;;;;;16.61;61.32;103549.00;5050863;28;20041;-69
2023/12/17 11:11:49;;;;;;;0.30;0.30;;;;;;;16.03;64.04;103538.50;5051360;28;20125;-69
2023/12/17 11:14:15;;;;;;;0.30;0.30;;;;;;;15.31;65.88;103545.84;5068781;28;20128;-69
2023/12/17 11:16:41;;;;;;;0.20;0.20;;;;;;;15.94;62.75;103539.66;5068137;28;20119;-69